createdAt,value
2023-01-17T00:00:30.177Z,4.80
2023-01-17T00:05:51.993Z,5.10
2023-01-17T00:10:55.227Z,4.90
2023-01-17T00:15:59.792Z,4.90
2023-01-17T00:21:21.349Z,5.00
2023-01-17T00:26:24.465Z,5.00
2023-01-17T00:31:28.915Z,4.90
2023-01-17T00:36:31.969Z,4.90
2023-01-17T00:41:35.085Z,4.70
2023-01-17T00:46:58.245Z,4.50
2023-01-17T00:52:19.863Z,4.40
2023-01-17T00:57:41.630Z,4.30
2023-01-17T01:03:05.052Z,4.20
2023-01-17T01:08:36.150Z,4.00
2023-01-17T01:13:58.101Z,4.00
2023-01-17T01:19:21.883Z,3.90
2023-01-17T01:24:43.575Z,3.90
2023-01-17T01:30:05.112Z,3.90
2023-01-17T01:35:10.035Z,4.00
2023-01-17T01:40:14.298Z,4.00
2023-01-17T01:45:19.768Z,4.00
2023-01-17T01:50:24.266Z,4.10
2023-01-17T01:55:31.754Z,4.30
2023-01-17T02:00:37.101Z,4.50
2023-01-17T02:05:43.646Z,4.50
2023-01-17T02:10:47.229Z,4.30
2023-01-17T02:15:58.234Z,4.30
2023-01-17T02:21:22.423Z,4.30
2023-01-17T02:26:55.520Z,4.20
2023-01-17T02:32:06.620Z,3.90
2023-01-17T02:37:16.270Z,3.70
2023-01-17T02:42:26.359Z,3.60
2023-01-17T02:47:31.987Z,3.60
2023-01-17T02:52:50.035Z,3.70
2023-01-17T02:58:04.165Z,3.70
2023-01-17T03:03:17.951Z,3.70
2023-01-17T03:08:22.424Z,3.70
2023-01-17T03:13:25.654Z,3.80
2023-01-17T03:18:30.178Z,4.20
2023-01-17T03:23:33.291Z,4.30
2023-01-17T03:28:36.387Z,4.40
2023-01-17T03:33:40.780Z,4.40
2023-01-17T03:38:43.861Z,4.60
2023-01-17T03:43:47.000Z,4.60
2023-01-17T03:48:52.215Z,4.70
2023-01-17T03:53:55.282Z,4.80
2023-01-17T03:58:58.536Z,4.90
2023-01-17T04:04:03.033Z,4.90
2023-01-17T04:09:06.190Z,4.90
2023-01-17T04:14:09.260Z,5.00
2023-01-17T04:19:14.019Z,4.90
2023-01-17T04:24:19.141Z,5.00
2023-01-17T04:29:22.360Z,4.90
2023-01-17T04:34:27.127Z,4.90
2023-01-17T04:39:30.440Z,5.00
2023-01-17T04:44:33.591Z,5.00
2023-01-17T04:49:38.363Z,4.80
2023-01-17T04:54:41.952Z,4.70
2023-01-17T04:59:45.745Z,4.60
2023-01-17T05:04:50.475Z,4.60
2023-01-17T05:09:53.782Z,4.60
2023-01-17T05:14:57.079Z,4.60
2023-01-17T05:20:01.616Z,4.60
2023-01-17T05:25:05.580Z,4.70
2023-01-17T05:30:10.313Z,4.60
2023-01-17T05:35:15.719Z,4.80
2023-01-17T05:40:19.418Z,4.90
2023-01-17T05:45:24.991Z,4.90
2023-01-17T05:50:31.879Z,5.00
2023-01-17T05:55:36.207Z,5.00
2023-01-17T06:00:39.763Z,5.00
2023-01-17T06:05:45.068Z,5.00
2023-01-17T06:10:48.118Z,4.90
2023-01-17T06:15:51.395Z,5.00
2023-01-17T06:20:56.338Z,4.90
2023-01-17T06:26:02.216Z,5.00
2023-01-17T06:31:07.172Z,5.00
2023-01-17T06:36:12.032Z,5.00
2023-01-17T06:41:15.278Z,5.00
2023-01-17T06:46:18.643Z,4.90
2023-01-17T06:51:23.419Z,4.90
2023-01-17T06:56:26.706Z,4.90
2023-01-17T07:01:31.035Z,4.80
2023-01-17T07:06:36.884Z,4.80
2023-01-17T07:11:42.075Z,4.70
2023-01-17T07:16:50.075Z,4.70
2023-01-17T07:21:55.388Z,4.70
2023-01-17T07:26:58.952Z,4.70
2023-01-17T07:32:03.299Z,4.70
2023-01-17T07:37:08.522Z,4.70
2023-01-17T07:42:12.456Z,4.70
2023-01-17T07:47:16.272Z,4.80
2023-01-17T07:52:21.585Z,4.80
2023-01-17T07:57:24.868Z,4.90
2023-01-17T08:02:28.184Z,5.00
2023-01-17T08:07:33.202Z,5.00
2023-01-17T08:12:38.520Z,5.10
2023-01-17T08:17:46.040Z,5.20
2023-01-17T08:22:52.735Z,5.10
2023-01-17T08:27:58.033Z,5.20
2023-01-17T08:33:02.052Z,5.20
2023-01-17T08:38:07.607Z,5.30
2023-01-17T08:43:11.068Z,5.40
2023-01-17T08:48:15.828Z,5.30
2023-01-17T08:53:23.145Z,5.30
2023-01-17T08:58:28.654Z,5.30
2023-01-17T09:03:34.490Z,5.40
2023-01-17T09:08:39.851Z,5.50
2023-01-17T09:13:43.582Z,5.60
2023-01-17T09:18:47.208Z,5.60
2023-01-17T09:23:52.248Z,5.60
2023-01-17T09:28:56.291Z,5.50
2023-01-17T09:34:00.381Z,5.30
2023-01-17T09:39:05.434Z,5.20
2023-01-17T09:44:23.165Z,5.00
2023-01-17T09:49:35.504Z,5.20
2023-01-17T09:54:42.971Z,5.50
2023-01-17T10:00:03.273Z,5.80
2023-01-17T10:05:37.469Z,5.80
2023-01-17T10:10:47.361Z,5.70
2023-01-17T10:16:01.804Z,5.60
2023-01-17T10:21:14.300Z,5.60
2023-01-17T10:26:24.052Z,5.30
2023-01-17T10:31:31.035Z,5.20
2023-01-17T10:36:39.519Z,4.90
2023-01-17T10:41:47.489Z,4.90
2023-01-17T10:46:56.316Z,5.10
2023-01-17T10:52:12.934Z,5.20
2023-01-17T10:57:20.717Z,5.40
2023-01-17T11:02:27.526Z,5.20
2023-01-17T11:07:31.067Z,5.30
2023-01-17T11:12:40.259Z,5.60
2023-01-17T11:17:48.818Z,5.60
2023-01-17T11:23:06.940Z,5.50
2023-01-17T11:28:21.826Z,4.90
2023-01-17T11:33:55.820Z,4.40
2023-01-17T11:39:02.856Z,3.80
2023-01-17T11:44:23.447Z,3.30
2023-01-17T11:49:29.603Z,3.30
2023-01-17T11:54:42.527Z,4.00
2023-01-17T11:59:48.306Z,4.60
2023-01-17T12:05:04.201Z,4.70
2023-01-17T12:10:16.569Z,4.50
2023-01-17T12:15:36.154Z,4.40
2023-01-17T12:20:48.533Z,4.70
2023-01-17T12:26:08.654Z,5.00
2023-01-17T12:31:22.428Z,5.70
2023-01-17T12:36:39.131Z,6.30
2023-01-17T12:41:56.401Z,6.20
2023-01-17T12:47:04.590Z,5.70
2023-01-17T12:52:16.554Z,5.30
2023-01-17T12:57:24.286Z,5.20
2023-01-17T13:02:36.549Z,5.40
2023-01-17T13:07:47.750Z,5.40
2023-01-17T13:12:51.824Z,5.80
2023-01-17T13:18:02.583Z,5.70
2023-01-17T13:23:12.582Z,5.60
2023-01-17T13:28:27.785Z,5.90
2023-01-17T13:33:45.458Z,6.20
2023-01-17T13:39:21.016Z,6.20
2023-01-17T13:44:28.059Z,5.60
2023-01-17T13:49:42.624Z,4.80
2023-01-17T13:54:47.604Z,4.40
2023-01-17T13:59:50.943Z,4.10
2023-01-17T14:05:11.744Z,4.20
2023-01-17T14:10:32.531Z,4.10
2023-01-17T14:15:49.654Z,4.10
2023-01-17T14:21:12.557Z,4.00
2023-01-17T14:26:47.192Z,3.90
2023-01-17T14:32:00.752Z,3.60
2023-01-17T14:37:16.886Z,3.30
2023-01-17T14:42:22.975Z,3.00
2023-01-17T14:47:32.365Z,3.00
2023-01-17T14:52:37.101Z,3.20
2023-01-17T14:57:40.872Z,3.00
2023-01-17T15:02:45.428Z,2.80
2023-01-17T15:07:53.928Z,2.50
2023-01-17T15:13:05.519Z,2.50
2023-01-17T15:18:20.308Z,2.80
2023-01-17T15:23:30.461Z,3.00
2023-01-17T15:28:34.572Z,2.80
2023-01-17T15:33:41.299Z,2.30
2023-01-17T15:38:54.478Z,1.80
2023-01-17T15:43:58.820Z,1.60
2023-01-17T15:49:17.531Z,1.30
2023-01-17T15:54:47.438Z,1.10
2023-01-17T16:00:00.680Z,0.80
2023-01-17T16:05:33.942Z,0.70
2023-01-17T16:10:39.467Z,0.50
2023-01-17T16:15:43.096Z,0.40
2023-01-17T16:20:49.891Z,0.00
2023-01-17T16:25:54.596Z,0.20
2023-01-17T16:30:58.108Z,0.10
2023-01-17T16:36:01.546Z,-0.10
2023-01-17T16:41:06.348Z,0.00
2023-01-17T16:46:11.799Z,-0.10
2023-01-17T16:51:16.896Z,-0.30
2023-01-17T16:56:21.708Z,-0.40
2023-01-17T17:01:25.366Z,-0.40
2023-01-17T17:06:31.057Z,-0.40
2023-01-17T17:11:35.850Z,-0.40
2023-01-17T17:16:39.215Z,-0.60
2023-01-17T17:21:42.528Z,-0.70
2023-01-17T17:26:47.378Z,-0.80
2023-01-17T17:31:50.867Z,-0.80
2023-01-17T17:36:54.145Z,-0.80
2023-01-17T17:41:59.184Z,-0.80
2023-01-17T17:47:02.970Z,-0.80
2023-01-17T17:52:07.455Z,-0.90
2023-01-17T17:57:12.169Z,-0.90
2023-01-17T18:02:16.500Z,-1.00
2023-01-17T18:07:20.076Z,-1.10
2023-01-17T18:12:24.879Z,-1.00
2023-01-17T18:17:28.232Z,-1.20
2023-01-17T18:22:33.561Z,-1.20
2023-01-17T18:27:39.737Z,-1.20
2023-01-17T18:32:43.535Z,-1.30
2023-01-17T18:37:46.775Z,-1.40
2023-01-17T18:42:51.379Z,-1.50
2023-01-17T18:47:55.352Z,-1.40
2023-01-17T18:52:59.104Z,-1.50
2023-01-17T18:58:03.704Z,-1.50
2023-01-17T19:03:07.116Z,-1.60
2023-01-17T19:08:10.680Z,-1.70
2023-01-17T19:13:16.036Z,-1.70
2023-01-17T19:18:19.193Z,-1.80
2023-01-17T19:23:23.232Z,-1.80
2023-01-17T19:28:29.106Z,-1.70
2023-01-17T19:33:34.071Z,-1.90
2023-01-17T19:38:38.404Z,-1.90
2023-01-17T19:43:43.677Z,-1.90
2023-01-17T19:48:47.335Z,-2.00
2023-01-17T19:53:51.130Z,-2.00
2023-01-17T19:59:00.651Z,-2.10
2023-01-17T20:04:04.681Z,-2.20
2023-01-17T20:09:08.686Z,-2.20
2023-01-17T20:14:15.308Z,-1.90
2023-01-17T20:19:18.898Z,-1.80
2023-01-17T20:24:22.341Z,-2.00
2023-01-17T20:29:27.270Z,-1.90
2023-01-17T20:34:31.808Z,-2.10
2023-01-17T20:39:35.478Z,-2.10
2023-01-17T20:44:40.560Z,-2.10
2023-01-17T20:49:44.767Z,-2.20
2023-01-17T20:54:49.650Z,-2.20
2023-01-17T20:59:54.251Z,-2.20
2023-01-17T21:04:58.708Z,-2.20
2023-01-17T21:10:02.322Z,-2.20
2023-01-17T21:15:09.044Z,-2.20
2023-01-17T21:20:13.867Z,-2.30
2023-01-17T21:25:17.702Z,-2.30
2023-01-17T21:30:22.699Z,-2.40
2023-01-17T21:35:26.694Z,-2.40
2023-01-17T21:40:30.244Z,-2.40
2023-01-17T21:45:37.886Z,-2.30
2023-01-17T21:50:41.529Z,-2.50
2023-01-17T21:56:03.541Z,-2.40
2023-01-17T22:01:18.105Z,-2.60
2023-01-17T22:06:23.747Z,-2.50
2023-01-17T22:11:29.987Z,-2.60
2023-01-17T22:16:34.770Z,-2.60
2023-01-17T22:21:38.053Z,-2.60
2023-01-17T22:26:42.010Z,-2.60
2023-01-17T22:31:47.187Z,-2.60
2023-01-17T22:36:50.977Z,-2.70
2023-01-17T22:41:54.831Z,-2.60
2023-01-17T22:47:00.013Z,-2.80
2023-01-17T22:52:05.073Z,-2.70
2023-01-17T22:57:09.255Z,-2.70
2023-01-17T23:02:15.749Z,-2.70
2023-01-17T23:07:20.416Z,-2.70
2023-01-17T23:12:24.161Z,-2.70
2023-01-17T23:17:48.393Z,-2.70
2023-01-17T23:22:52.314Z,-2.80
2023-01-17T23:28:13.558Z,-2.90
2023-01-17T23:33:19.926Z,-2.90
2023-01-17T23:38:28.712Z,-2.90
2023-01-17T23:43:32.960Z,-2.90
2023-01-17T23:48:37.719Z,-3.00
2023-01-17T23:53:41.508Z,-2.90
2023-01-17T23:58:45.398Z,-2.90
